createdAt,value
2022-10-23T00:01:57.791Z,99.90
2022-10-23T00:07:01.003Z,99.90
2022-10-23T00:12:02.877Z,99.90
2022-10-23T00:17:04.843Z,99.90
2022-10-23T00:22:08.590Z,99.90
2022-10-23T00:27:10.345Z,99.90
2022-10-23T00:32:12.088Z,99.90
2022-10-23T00:37:13.847Z,99.90
2022-10-23T00:42:21.298Z,99.90
2022-10-23T00:47:23.051Z,99.90
2022-10-23T00:52:24.984Z,99.90
2022-10-23T00:57:26.712Z,99.90
2022-10-23T01:02:28.572Z,99.90
2022-10-23T01:08:01.394Z,99.90
2022-10-23T01:13:26.110Z,99.90
2022-10-23T01:18:35.070Z,99.90
2022-10-23T01:24:03.038Z,99.90
2022-10-23T01:29:27.083Z,99.90
2022-10-23T01:34:41.634Z,99.90
2022-10-23T01:39:51.689Z,99.90
2022-10-23T01:45:16.000Z,99.90
2022-10-23T01:50:21.415Z,99.90
2022-10-23T01:55:26.036Z,99.90
2022-10-23T02:00:29.398Z,99.90
2022-10-23T02:05:33.917Z,99.90
2022-10-23T02:10:49.991Z,99.90
2022-10-23T02:16:14.609Z,99.90
2022-10-23T02:21:52.334Z,99.90
2022-10-23T02:26:57.675Z,99.90
2022-10-23T02:31:59.802Z,99.90
2022-10-23T02:37:02.499Z,99.90
2022-10-23T02:42:10.405Z,99.90
2022-10-23T02:47:31.407Z,99.90
2022-10-23T02:53:10.409Z,99.90
2022-10-23T02:58:24.641Z,99.90
2022-10-23T03:03:35.782Z,99.90
2022-10-23T03:09:02.292Z,99.90
2022-10-23T03:14:04.007Z,99.90
2022-10-23T03:19:05.777Z,99.90
2022-10-23T03:24:07.766Z,99.90
2022-10-23T03:29:15.744Z,99.90
2022-10-23T03:34:20.425Z,99.90
2022-10-23T03:39:22.661Z,99.90
2022-10-23T03:44:24.515Z,99.90
2022-10-23T03:49:26.262Z,99.90
2022-10-23T03:54:29.794Z,99.90
2022-10-23T03:59:31.836Z,99.90
2022-10-23T04:04:34.591Z,99.90
2022-10-23T04:09:36.398Z,99.90
2022-10-23T04:14:39.159Z,99.90
2022-10-23T04:19:40.955Z,99.90
2022-10-23T04:24:46.570Z,99.90
2022-10-23T04:29:55.484Z,99.90
2022-10-23T04:35:00.065Z,99.90
2022-10-23T04:40:01.822Z,99.90
2022-10-23T04:45:04.610Z,99.90
2022-10-23T04:50:07.273Z,99.90
2022-10-23T04:55:32.238Z,99.90
2022-10-23T05:00:50.589Z,99.90
2022-10-23T05:05:58.346Z,99.90
2022-10-23T05:11:20.314Z,99.90
2022-10-23T05:16:43.102Z,99.90
2022-10-23T05:21:48.658Z,99.90
2022-10-23T05:26:52.817Z,99.90
2022-10-23T05:32:00.833Z,99.90
2022-10-23T05:37:06.763Z,99.90
2022-10-23T05:42:12.449Z,99.90
2022-10-23T05:47:15.211Z,99.90
2022-10-23T05:52:41.500Z,99.90
2022-10-23T05:57:50.046Z,99.90
2022-10-23T06:03:00.191Z,99.90
2022-10-23T06:08:10.281Z,99.90
2022-10-23T06:13:11.990Z,99.90
2022-10-23T06:18:13.863Z,99.90
2022-10-23T06:23:27.455Z,99.90
2022-10-23T06:28:41.604Z,99.90
2022-10-23T06:33:43.493Z,99.90
2022-10-23T06:38:45.789Z,99.90
2022-10-23T06:43:50.311Z,99.90
2022-10-23T06:49:17.951Z,99.90
2022-10-23T06:54:22.747Z,99.90
2022-10-23T06:59:27.395Z,99.90
2022-10-23T07:04:29.395Z,99.90
2022-10-23T07:09:32.623Z,99.90
2022-10-23T07:14:52.506Z,99.90
2022-10-23T07:19:54.368Z,99.90
2022-10-23T07:24:56.200Z,99.90
2022-10-23T07:30:02.482Z,99.90
2022-10-23T07:35:12.245Z,99.90
2022-10-23T07:40:18.743Z,99.90
2022-10-23T07:45:20.517Z,99.90
2022-10-23T07:50:23.210Z,99.90
2022-10-23T07:55:25.181Z,99.90
2022-10-23T08:00:41.353Z,99.90
2022-10-23T08:05:55.266Z,99.90
2022-10-23T08:10:57.425Z,99.90
2022-10-23T08:16:04.524Z,99.90
2022-10-23T08:21:24.969Z,99.90
2022-10-23T08:26:29.415Z,98.30
2022-10-23T08:31:31.362Z,98.10
2022-10-23T08:36:51.834Z,98.30
2022-10-23T08:41:53.816Z,97.50
2022-10-23T08:46:59.232Z,96.90
2022-10-23T08:52:34.616Z,97.90
2022-10-23T08:57:43.733Z,96.80
2022-10-23T09:02:48.784Z,96.00
2022-10-23T09:08:13.714Z,95.90
2022-10-23T09:13:27.715Z,98.10
2022-10-23T09:18:30.791Z,99.90
2022-10-23T09:23:32.503Z,99.90
2022-10-23T09:28:42.141Z,99.30
2022-10-23T09:33:59.601Z,99.90
2022-10-23T09:39:01.577Z,99.90
2022-10-23T09:44:22.744Z,99.90
2022-10-23T09:49:32.592Z,99.90
2022-10-23T09:54:45.418Z,99.40
2022-10-23T09:59:55.433Z,99.70
2022-10-23T10:04:58.029Z,99.40
2022-10-23T10:09:59.888Z,99.20
2022-10-23T10:15:27.326Z,96.80
2022-10-23T10:20:59.238Z,95.00
2022-10-23T10:26:07.126Z,92.40
2022-10-23T10:31:56.735Z,92.00
2022-10-23T10:37:17.297Z,92.60
2022-10-23T10:42:31.389Z,94.90
2022-10-23T10:48:01.099Z,95.50
2022-10-23T10:53:26.594Z,95.00
2022-10-23T10:58:40.416Z,96.20
2022-10-23T11:04:08.533Z,96.60
2022-10-23T11:09:21.173Z,96.80
2022-10-23T11:14:25.202Z,95.90
2022-10-23T11:19:43.871Z,95.30
2022-10-23T11:25:08.466Z,93.10
2022-10-23T11:30:23.435Z,92.90
2022-10-23T11:35:43.776Z,94.20
2022-10-23T11:45:50.593Z,95.40
2022-10-23T11:50:55.456Z,94.10
2022-10-23T11:56:20.432Z,95.20
2022-10-23T12:01:22.715Z,94.70
2022-10-23T12:06:37.842Z,96.40
2022-10-23T12:11:43.829Z,97.60
2022-10-23T12:16:45.554Z,98.10
2022-10-23T12:21:50.227Z,98.00
2022-10-23T12:27:12.984Z,98.50
2022-10-23T12:32:42.563Z,99.10
2022-10-23T12:38:02.906Z,97.40
2022-10-23T12:43:41.228Z,95.50
2022-10-23T12:48:54.220Z,96.00
2022-10-23T12:53:56.185Z,97.50
2022-10-23T12:59:01.977Z,97.30
2022-10-23T13:04:26.550Z,97.60
2022-10-23T13:09:33.420Z,97.50
2022-10-23T13:15:03.390Z,97.80
2022-10-23T13:20:17.342Z,98.40
2022-10-23T13:25:39.686Z,98.00
2022-10-23T13:30:46.079Z,98.00
2022-10-23T13:35:59.325Z,99.30
2022-10-23T13:41:02.775Z,99.90
2022-10-23T13:46:04.608Z,99.90
2022-10-23T13:51:13.215Z,99.80
2022-10-23T13:56:17.242Z,98.50
2022-10-23T14:01:26.623Z,98.00
2022-10-23T14:06:28.454Z,95.50
2022-10-23T14:11:30.726Z,94.60
2022-10-23T14:16:32.608Z,96.00
2022-10-23T14:21:34.736Z,95.00
2022-10-23T14:26:36.505Z,95.80
2022-10-23T14:31:38.374Z,96.20
2022-10-23T14:36:49.782Z,95.80
2022-10-23T14:41:52.779Z,95.60
2022-10-23T14:46:54.487Z,96.40
2022-10-23T14:51:56.198Z,97.30
2022-10-23T14:56:57.894Z,97.60
2022-10-23T15:01:59.852Z,98.10
2022-10-23T15:07:01.558Z,99.10
2022-10-23T15:12:04.776Z,99.40
2022-10-23T15:17:06.486Z,99.90
2022-10-23T15:22:08.275Z,99.90
2022-10-23T15:32:16.656Z,99.90
2022-10-23T15:37:18.374Z,99.90
2022-10-23T15:42:20.288Z,99.90
2022-10-23T15:47:21.990Z,99.90
2022-10-23T15:52:23.690Z,99.90
2022-10-23T15:57:26.841Z,99.90
2022-10-23T16:02:28.684Z,99.90
2022-10-23T16:07:30.510Z,99.90
2022-10-23T16:12:32.257Z,99.90
2022-10-23T16:17:34.004Z,99.90
2022-10-23T16:22:36.034Z,99.90
2022-10-23T16:27:37.961Z,99.90
2022-10-23T16:32:40.826Z,99.90
2022-10-23T16:37:42.791Z,99.90
2022-10-23T16:42:49.664Z,99.90
2022-10-23T16:48:11.187Z,99.90
2022-10-23T16:53:12.942Z,99.90
2022-10-23T16:58:14.681Z,99.90
2022-10-23T17:03:16.394Z,99.90
2022-10-23T17:08:18.118Z,99.90
2022-10-23T17:13:19.871Z,99.90
2022-10-23T17:18:21.638Z,99.90
2022-10-23T17:23:23.378Z,99.90
2022-10-23T17:28:25.642Z,99.90
2022-10-23T17:33:27.385Z,99.90
2022-10-23T17:38:29.137Z,99.90
2022-10-23T17:43:30.949Z,99.90
2022-10-23T17:48:33.019Z,99.90
2022-10-23T17:53:36.256Z,99.90
2022-10-23T17:58:38.121Z,99.90
2022-10-23T18:03:40.310Z,99.90
2022-10-23T18:08:43.198Z,99.90
2022-10-23T18:13:46.164Z,99.90
2022-10-23T18:18:48.313Z,99.90
2022-10-23T18:23:51.116Z,99.90
2022-10-23T18:28:58.325Z,99.90
2022-10-23T18:34:04.124Z,99.90
2022-10-23T18:39:09.171Z,99.90
2022-10-23T18:44:14.700Z,99.90
2022-10-23T18:49:19.043Z,99.90
2022-10-23T18:54:21.924Z,99.90
2022-10-23T18:59:23.836Z,99.90
2022-10-23T19:04:25.550Z,99.90
2022-10-23T19:09:27.267Z,99.90
2022-10-23T19:14:29.874Z,99.90
2022-10-23T19:19:43.352Z,99.90
2022-10-23T19:24:53.511Z,99.90
2022-10-23T19:29:55.807Z,99.90
2022-10-23T19:34:58.970Z,99.90
2022-10-23T19:40:02.382Z,99.90
2022-10-23T19:45:10.466Z,99.90
2022-10-23T19:50:12.425Z,99.90
2022-10-23T19:55:14.171Z,99.90
2022-10-23T20:00:16.299Z,99.90
2022-10-23T20:05:18.984Z,99.90
2022-10-23T20:10:20.960Z,99.90
2022-10-23T20:15:23.421Z,99.90
2022-10-23T20:20:25.147Z,99.90
2022-10-23T20:25:27.148Z,99.90
2022-10-23T20:30:29.019Z,99.90
2022-10-23T20:35:41.180Z,99.90
2022-10-23T20:40:42.962Z,99.90
2022-10-23T20:45:44.698Z,99.90
2022-10-23T20:50:46.445Z,99.90
2022-10-23T20:55:48.182Z,99.90
2022-10-23T21:00:50.048Z,99.90
2022-10-23T21:05:51.827Z,99.90
2022-10-23T21:10:53.560Z,99.90
2022-10-23T21:15:55.694Z,99.90
2022-10-23T21:20:57.422Z,99.90
2022-10-23T21:26:03.413Z,99.90
2022-10-23T21:31:09.766Z,99.90
2022-10-23T21:36:19.407Z,99.90
2022-10-23T21:41:28.137Z,99.90
2022-10-23T21:46:31.239Z,99.90
2022-10-23T21:51:37.050Z,99.90
2022-10-23T21:56:45.316Z,99.90
2022-10-23T22:01:48.649Z,99.90
2022-10-23T22:06:50.651Z,99.90
2022-10-23T22:11:53.531Z,99.90
2022-10-23T22:16:55.385Z,99.90
2022-10-23T22:21:57.389Z,99.90
2022-10-23T22:26:59.128Z,99.90
2022-10-23T22:32:00.837Z,99.90
2022-10-23T22:37:02.554Z,99.90
2022-10-23T22:42:04.723Z,99.90
2022-10-23T22:47:06.835Z,99.90
2022-10-23T22:52:08.905Z,99.90
2022-10-23T22:57:10.703Z,99.90
2022-10-23T23:02:12.849Z,99.90
2022-10-23T23:07:14.908Z,99.90
2022-10-23T23:12:16.642Z,99.90
2022-10-23T23:17:18.349Z,99.90
2022-10-23T23:22:20.442Z,99.90
2022-10-23T23:27:22.220Z,99.90
2022-10-23T23:32:24.121Z,99.90
2022-10-23T23:37:25.936Z,99.90
2022-10-23T23:42:27.695Z,99.90
2022-10-23T23:47:29.491Z,99.90
2022-10-23T23:52:31.366Z,99.90
2022-10-23T23:57:33.134Z,99.90
